Redford, New York
Current Conditions -  °F | °C
As of 1:08 AM on Sunday 21 Dec 2014 (Local Time) from KPBG Reporting Station
Overcast Overcast  
Wind Chill:   Ceiling: 900
Heat Index: 17°   Visibility: 8mi
Dew Point: 13°   Wind: 7mph
Humidity: 84%   Direction: 350°N
Pressure: 30.34"   Gusts: NA
Location:  44.61°N, 73.8°W
Report Text: KPBG 210608Z AUTO 35006KT 8SM OVC009 M08/M11 A3034 RMK AO2 T10831106
Loading
Personal Weather Stations






























Interactive Weather Map New forecast layout! Learn more

10-Day Weather Forecast

Advertisements
Track Severe Weather on mobile